Latest earthquakes

Coordinated Universal Time (UTC)

MagnitudeMag. Date Time Epicenter location: latitude, longitude loc.: lat., long. DepthDepth
4.3 2018-11-17 15:15:01 20 km to W  of RIO GRANDE, OAXACA : 16.01°, -97.62° 16.0 km
3.8 2018-11-17 11:36:11 99 km to SE  of SALINA CRUZ, OAXACA : 15.40°, -94.74° 19.0 km
4.1 2018-11-17 11:28:43 63 km to NE  of MATIAS ROMERO, OAXACA : 17.30°, -94.65° 134.0 km
3.7 2018-11-17 11:16:30 79 km to SW  of COALCOMAN, MICHOACÁN : 18.11°, -103.43° 5.0 km
3.9 2018-11-17 10:50:17 107 km to SW  of PINOTEPA NACIONAL, OAXACA : 15.59°, -98.68° 16.0 km
3.6 2018-11-17 10:48:25 6 km to SW  of PINOTEPA NACIONAL, OAXACA : 16.30°, -98.09° 12.0 km
4.2 2018-11-17 09:31:06 68 km to SW  of COYUCA DE BENITEZ, GUERRERO : 16.58°, -100.54° 12.0 km
3.7 2018-11-17 08:25:05 49 km to NW  of CINTALAPA, CHIAPAS : 16.90°, -94.13° 154.0 km
3.6 2018-11-17 07:33:24 29 km to S  of SALINA CRUZ, OAXACA : 15.92°, -95.20° 13.0 km
3.6 2018-11-17 06:59:53 13 km to NE  of S BLAS ATEMPA, OAXACA : 16.41°, -95.15° 65.0 km
3.6 2018-11-17 06:52:07 4 km to S  of ATOYAC DE ALVAREZ, GUERRERO : 17.17°, -100.44° 41.0 km
3.9 2018-11-17 06:03:39 52 km to NW  of TEHUANTEPEC, OAXACA : 16.46°, -95.71° 82.0 km
2.9 2018-11-17 05:38:45 55 km to N  of RIO GRANDE, OAXACA : 16.50°, -97.50° 7.0 km
3.5 2018-11-17 05:24:24 32 km to SE  of CD ALTAMIRANO, GUERRERO : 18.10°, -100.55° 57.0 km
3.4 2018-11-17 04:57:21 95 km to SW  of OMETEPEC, GUERRERO : 16.02°, -98.96° 10.0 km
3.6 2018-11-17 04:47:44 8 km to N  of CD IXTEPEC, OAXACA : 16.64°, -95.10° 88.0 km
3.3 2018-11-17 04:36:40 34 km to SE  of PETATLAN, GUERRERO : 17.26°, -101.15° 40.0 km
3.2 2018-11-17 04:34:21 20 km to W  of PUERTO ESCONDIDO, OAXACA : 15.83°, -97.25° 19.0 km
3.2 2018-11-17 04:17:45 10 km to S  of PINOTEPA NACIONAL, OAXACA : 16.25°, -98.08° 13.0 km
3.6 2018-11-17 04:06:36 70 km to S  of TECPAN, GUERRERO : 16.59°, -100.61° 10.0 km
3.8 2018-11-17 04:02:43 78 km to S  of TECPAN, GUERRERO : 16.51°, -100.66° 17.0 km
3.8 2018-11-17 03:47:48 69 km to S  of TECPAN, GUERRERO : 16.60°, -100.60° 10.0 km
3.7 2018-11-17 03:33:14 63 km to S  of SALINA CRUZ, OAXACA : 15.61°, -95.14° 25.0 km
3.7 2018-11-17 03:07:45 67 km to SW  of PIJIJIAPAN, CHIAPAS : 15.39°, -93.76° 61.0 km
3.7 2018-11-17 02:48:30 14 km to NE  of S BLAS ATEMPA, OAXACA : 16.44°, -95.16° 55.0 km
3.7 2018-11-17 02:44:42 21 km to NE  of CD IXTEPEC, OAXACA : 16.67°, -94.93° 12.0 km
3.3 2018-11-17 02:42:03 10 km to S  of PINOTEPA NACIONAL, OAXACA : 16.25°, -98.06° 9.0 km
4.0 2018-11-17 02:19:48 17 km to SW  of SALINA CRUZ, OAXACA : 16.04°, -95.26° 13.0 km
3.2 2018-11-17 02:17:48 10 km to SE  of PINOTEPA NACIONAL, OAXACA : 16.26°, -98.02° 3.0 km
3.8 2018-11-17 02:01:09 93 km to SW  of LA MIRA, MICHOACÁN : 17.72°, -103.14° 16.0 km
3.0 2018-11-17 01:45:22 3 km to NW  of PINOTEPA NACIONAL, OAXACA : 16.36°, -98.06° 20.0 km
3.7 2018-11-17 01:34:33 72 km to NE  of MATIAS ROMERO, OAXACA : 17.19°, -94.45° 146.0 km
3.5 2018-11-17 01:17:55 40 km to E  of SAN MARCOS, GUERRERO : 16.85°, -99.02° 37.0 km
4.2 2018-11-17 00:49:21 38 km to SW  of CD HIDALGO, CHIAPAS : 14.44°, -92.40° 62.0 km
4.0 2018-11-17 00:35:28 8 km to SW  of PINOTEPA NACIONAL, OAXACA : 16.28°, -98.10° 12.0 km
3.7 2018-11-17 00:25:10 30 km to N  of MATIAS ROMERO, OAXACA : 17.14°, -95.01° 123.0 km
3.4 2018-11-17 00:17:41 11 km to SW  of PINOTEPA NACIONAL, OAXACA : 16.25°, -98.10° 11.0 km
3.9 2018-11-17 00:14:35 95 km to SW  of PUERTO ESCONDIDO, OAXACA : 15.09°, -97.44° 8.0 km
3.6 2018-11-17 00:08:40 61 km to W  of LA MIRA, MICHOACÁN : 18.15°, -102.90° 6.0 km

For more information, see our Earthquakes catalog

Magnitude < 4.0

Magnitude >= 4.0 & < 6.0

Magnitude >= 6.0